sensor_id;sensor_type;location;lat;lon;timestamp;P1;durP1;ratioP1;P2;durP2;ratioP2
65636;SDS011;52327;42.622;23.316;2024-03-02T00:00:21;15.70;;;4.80;;
65636;SDS011;52327;42.622;23.316;2024-03-02T00:02:48;23.65;;;5.00;;
65636;SDS011;52327;42.622;23.316;2024-03-02T00:05:18;8.27;;;4.80;;
65636;SDS011;52327;42.622;23.316;2024-03-02T00:07:45;19.00;;;6.15;;
65636;SDS011;52327;42.622;23.316;2024-03-02T00:10:19;4.03;;;3.47;;
65636;SDS011;52327;42.622;23.316;2024-03-02T00:12:48;8.98;;;5.25;;
65636;SDS011;52327;42.622;23.316;2024-03-02T00:15:59;11.43;;;5.82;;
65636;SDS011;52327;42.622;23.316;2024-03-02T00:17:59;11.63;;;6.35;;
65636;SDS011;52327;42.622;23.316;2024-03-02T00:20:25;12.02;;;6.55;;
65636;SDS011;52327;42.622;23.316;2024-03-02T00:22:54;11.75;;;4.90;;
65636;SDS011;52327;42.622;23.316;2024-03-02T00:25:27;17.73;;;6.68;;
65636;SDS011;52327;42.622;23.316;2024-03-02T00:36:07;6.15;;;4.35;;
65636;SDS011;52327;42.622;23.316;2024-03-02T00:38:34;14.40;;;5.82;;
65636;SDS011;52327;42.622;23.316;2024-03-02T00:41:07;12.52;;;4.38;;
65636;SDS011;52327;42.622;23.316;2024-03-02T00:43:43;11.85;;;6.10;;
65636;SDS011;52327;42.622;23.316;2024-03-02T00:46:12;12.73;;;5.25;;
65636;SDS011;52327;42.622;23.316;2024-03-02T00:51:45;7.88;;;5.30;;
65636;SDS011;52327;42.622;23.316;2024-03-02T00:54:13;11.60;;;6.57;;
65636;SDS011;52327;42.622;23.316;2024-03-02T00:56:41;6.90;;;5.03;;
65636;SDS011;52327;42.622;23.316;2024-03-02T00:59:07;10.75;;;6.28;;
65636;SDS011;52327;42.622;23.316;2024-03-02T01:01:33;10.30;;;4.60;;
65636;SDS011;52327;42.622;23.316;2024-03-02T01:03:59;16.05;;;5.78;;
65636;SDS011;52327;42.622;23.316;2024-03-02T01:06:25;18.38;;;6.95;;
65636;SDS011;52327;42.622;23.316;2024-03-02T01:08:50;12.63;;;5.90;;
65636;SDS011;52327;42.622;23.316;2024-03-02T01:11:16;15.15;;;5.65;;
65636;SDS011;52327;42.622;23.316;2024-03-02T01:13:43;8.27;;;4.90;;
65636;SDS011;52327;42.622;23.316;2024-03-02T01:16:09;17.05;;;6.18;;
65636;SDS011;52327;42.622;23.316;2024-03-02T01:18:35;13.18;;;8.18;;
65636;SDS011;52327;42.622;23.316;2024-03-02T01:21:00;13.88;;;8.88;;
65636;SDS011;52327;42.622;23.316;2024-03-02T01:23:26;14.25;;;7.40;;
65636;SDS011;52327;42.622;23.316;2024-03-02T01:25:52;19.48;;;7.18;;
65636;SDS011;52327;42.622;23.316;2024-03-02T01:28:18;21.13;;;7.72;;
65636;SDS011;52327;42.622;23.316;2024-03-02T01:30:45;9.02;;;5.85;;
65636;SDS011;52327;42.622;23.316;2024-03-02T01:33:11;8.85;;;4.18;;
65636;SDS011;52327;42.622;23.316;2024-03-02T01:35:36;12.52;;;6.93;;
65636;SDS011;52327;42.622;23.316;2024-03-02T01:38:02;11.35;;;6.18;;
65636;SDS011;52327;42.622;23.316;2024-03-02T01:40:28;12.20;;;5.13;;
65636;SDS011;52327;42.622;23.316;2024-03-02T01:42:54;9.48;;;4.40;;
65636;SDS011;52327;42.622;23.316;2024-03-02T01:45:20;11.20;;;5.57;;
65636;SDS011;52327;42.622;23.316;2024-03-02T01:47:46;6.75;;;4.45;;
65636;SDS011;52327;42.622;23.316;2024-03-02T01:50:12;11.65;;;4.60;;
65636;SDS011;52327;42.622;23.316;2024-03-02T01:52:38;10.93;;;5.22;;
65636;SDS011;52327;42.622;23.316;2024-03-02T01:55:04;8.13;;;4.47;;
65636;SDS011;52327;42.622;23.316;2024-03-02T01:57:31;8.55;;;4.65;;
65636;SDS011;52327;42.622;23.316;2024-03-02T01:59:56;14.88;;;5.18;;
65636;SDS011;52327;42.622;23.316;2024-03-02T02:02:22;15.85;;;5.30;;
65636;SDS011;52327;42.622;23.316;2024-03-02T02:04:47;9.88;;;4.90;;
65636;SDS011;52327;42.622;23.316;2024-03-02T02:07:12;11.73;;;6.50;;
65636;SDS011;52327;42.622;23.316;2024-03-02T02:09:39;8.43;;;5.22;;
65636;SDS011;52327;42.622;23.316;2024-03-02T02:12:06;15.43;;;4.25;;
65636;SDS011;52327;42.622;23.316;2024-03-02T02:14:32;16.60;;;5.72;;
65636;SDS011;52327;42.622;23.316;2024-03-02T02:16:58;12.68;;;5.53;;
65636;SDS011;52327;42.622;23.316;2024-03-02T02:19:24;9.88;;;5.53;;
65636;SDS011;52327;42.622;23.316;2024-03-02T02:21:49;7.25;;;3.65;;
65636;SDS011;52327;42.622;23.316;2024-03-02T02:24:15;13.75;;;7.47;;
65636;SDS011;52327;42.622;23.316;2024-03-02T02:26:40;12.43;;;6.75;;
65636;SDS011;52327;42.622;23.316;2024-03-02T02:29:05;7.88;;;5.25;;
65636;SDS011;52327;42.622;23.316;2024-03-02T02:31:40;10.63;;;6.53;;
65636;SDS011;52327;42.622;23.316;2024-03-02T02:34:06;21.00;;;8.30;;
65636;SDS011;52327;42.622;23.316;2024-03-02T02:36:32;14.23;;;5.05;;
65636;SDS011;52327;42.622;23.316;2024-03-02T02:38:59;16.52;;;6.70;;
65636;SDS011;52327;42.622;23.316;2024-03-02T02:41:28;14.40;;;5.50;;
65636;SDS011;52327;42.622;23.316;2024-03-02T02:43:54;13.23;;;5.75;;
65636;SDS011;52327;42.622;23.316;2024-03-02T02:46:20;6.47;;;3.60;;
65636;SDS011;52327;42.622;23.316;2024-03-02T02:48:45;10.93;;;4.65;;
65636;SDS011;52327;42.622;23.316;2024-03-02T02:51:11;8.07;;;4.53;;
65636;SDS011;52327;42.622;23.316;2024-03-02T02:53:36;16.70;;;5.78;;
65636;SDS011;52327;42.622;23.316;2024-03-02T02:56:05;16.10;;;4.93;;
65636;SDS011;52327;42.622;23.316;2024-03-02T02:58:32;15.35;;;7.85;;
65636;SDS011;52327;42.622;23.316;2024-03-02T03:00:57;18.52;;;6.97;;
65636;SDS011;52327;42.622;23.316;2024-03-02T03:03:23;13.13;;;5.82;;
65636;SDS011;52327;42.622;23.316;2024-03-02T03:05:48;13.20;;;4.60;;
65636;SDS011;52327;42.622;23.316;2024-03-02T03:08:14;14.88;;;6.20;;
65636;SDS011;52327;42.622;23.316;2024-03-02T03:10:41;11.05;;;5.03;;
65636;SDS011;52327;42.622;23.316;2024-03-02T03:13:06;13.52;;;5.75;;
65636;SDS011;52327;42.622;23.316;2024-03-02T03:15:35;20.23;;;5.95;;
65636;SDS011;52327;42.622;23.316;2024-03-02T03:18:04;14.43;;;6.57;;
65636;SDS011;52327;42.622;23.316;2024-03-02T03:20:30;25.27;;;6.78;;
65636;SDS011;52327;42.622;23.316;2024-03-02T03:22:59;7.53;;;4.40;;
65636;SDS011;52327;42.622;23.316;2024-03-02T03:25:25;15.60;;;8.15;;
65636;SDS011;52327;42.622;23.316;2024-03-02T03:27:50;17.67;;;8.85;;
65636;SDS011;52327;42.622;23.316;2024-03-02T03:30:17;22.10;;;6.43;;
65636;SDS011;52327;42.622;23.316;2024-03-02T03:32:43;14.80;;;6.38;;
65636;SDS011;52327;42.622;23.316;2024-03-02T03:35:08;18.13;;;7.20;;
65636;SDS011;52327;42.622;23.316;2024-03-02T03:37:34;16.13;;;6.15;;
65636;SDS011;52327;42.622;23.316;2024-03-02T03:40:00;13.63;;;5.30;;
65636;SDS011;52327;42.622;23.316;2024-03-02T03:42:26;16.40;;;7.45;;
65636;SDS011;52327;42.622;23.316;2024-03-02T03:44:51;16.85;;;7.35;;
65636;SDS011;52327;42.622;23.316;2024-03-02T03:47:17;13.25;;;8.60;;
65636;SDS011;52327;42.622;23.316;2024-03-02T03:49:42;22.23;;;9.93;;
65636;SDS011;52327;42.622;23.316;2024-03-02T03:52:08;14.38;;;7.60;;
65636;SDS011;52327;42.622;23.316;2024-03-02T03:54:33;9.45;;;6.05;;
65636;SDS011;52327;42.622;23.316;2024-03-02T03:56:58;17.42;;;8.25;;
65636;SDS011;52327;42.622;23.316;2024-03-02T03:59:24;15.05;;;7.68;;
65636;SDS011;52327;42.622;23.316;2024-03-02T04:01:49;14.02;;;7.30;;
65636;SDS011;52327;42.622;23.316;2024-03-02T04:04:15;10.45;;;7.22;;
65636;SDS011;52327;42.622;23.316;2024-03-02T04:06:40;15.65;;;6.93;;
65636;SDS011;52327;42.622;23.316;2024-03-02T04:09:05;15.07;;;8.20;;
65636;SDS011;52327;42.622;23.316;2024-03-02T04:11:31;16.92;;;6.95;;
65636;SDS011;52327;42.622;23.316;2024-03-02T04:13:56;13.85;;;8.13;;
65636;SDS011;52327;42.622;23.316;2024-03-02T04:16:22;18.05;;;8.55;;
65636;SDS011;52327;42.622;23.316;2024-03-02T04:18:47;10.48;;;5.22;;
65636;SDS011;52327;42.622;23.316;2024-03-02T04:21:13;13.60;;;7.05;;
65636;SDS011;52327;42.622;23.316;2024-03-02T04:23:38;7.63;;;5.30;;
65636;SDS011;52327;42.622;23.316;2024-03-02T04:26:04;12.45;;;6.32;;
65636;SDS011;52327;42.622;23.316;2024-03-02T04:28:29;7.72;;;4.22;;
65636;SDS011;52327;42.622;23.316;2024-03-02T04:30:54;10.45;;;6.45;;
65636;SDS011;52327;42.622;23.316;2024-03-02T04:33:20;11.02;;;6.30;;
65636;SDS011;52327;42.622;23.316;2024-03-02T04:35:45;12.10;;;5.70;;
65636;SDS011;52327;42.622;23.316;2024-03-02T04:38:11;7.35;;;5.75;;
65636;SDS011;52327;42.622;23.316;2024-03-02T04:40:37;11.23;;;6.18;;
65636;SDS011;52327;42.622;23.316;2024-03-02T04:43:02;15.52;;;7.18;;
65636;SDS011;52327;42.622;23.316;2024-03-02T04:45:28;18.67;;;6.65;;
65636;SDS011;52327;42.622;23.316;2024-03-02T04:47:54;11.23;;;5.60;;
65636;SDS011;52327;42.622;23.316;2024-03-02T04:50:19;10.48;;;5.78;;
65636;SDS011;52327;42.622;23.316;2024-03-02T04:52:45;7.28;;;5.68;;
65636;SDS011;52327;42.622;23.316;2024-03-02T04:55:10;11.77;;;5.75;;
65636;SDS011;52327;42.622;23.316;2024-03-02T04:57:52;12.95;;;6.22;;
65636;SDS011;52327;42.622;23.316;2024-03-02T05:00:21;14.75;;;5.78;;
65636;SDS011;52327;42.622;23.316;2024-03-02T05:02:46;13.07;;;5.53;;
65636;SDS011;52327;42.622;23.316;2024-03-02T05:05:12;10.73;;;5.20;;
65636;SDS011;52327;42.622;23.316;2024-03-02T05:07:37;11.10;;;5.28;;
65636;SDS011;52327;42.622;23.316;2024-03-02T05:10:03;13.23;;;5.20;;
65636;SDS011;52327;42.622;23.316;2024-03-02T05:12:29;14.90;;;6.25;;
65636;SDS011;52327;42.622;23.316;2024-03-02T05:15:14;7.20;;;4.32;;
65636;SDS011;52327;42.622;23.316;2024-03-02T05:17:40;8.57;;;5.00;;
65636;SDS011;52327;42.622;23.316;2024-03-02T05:20:09;11.35;;;5.22;;
65636;SDS011;52327;42.622;23.316;2024-03-02T05:22:35;11.27;;;4.15;;
65636;SDS011;52327;42.622;23.316;2024-03-02T05:25:02;9.30;;;4.93;;
65636;SDS011;52327;42.622;23.316;2024-03-02T05:27:28;10.90;;;4.22;;
65636;SDS011;52327;42.622;23.316;2024-03-02T05:29:53;9.07;;;6.50;;
65636;SDS011;52327;42.622;23.316;2024-03-02T05:32:19;6.95;;;4.55;;
65636;SDS011;52327;42.622;23.316;2024-03-02T05:34:44;10.60;;;5.03;;
65636;SDS011;52327;42.622;23.316;2024-03-02T05:37:09;13.27;;;6.45;;
65636;SDS011;52327;42.622;23.316;2024-03-02T05:39:35;14.30;;;5.32;;
65636;SDS011;52327;42.622;23.316;2024-03-02T05:42:00;9.43;;;4.93;;
65636;SDS011;52327;42.622;23.316;2024-03-02T05:44:26;11.63;;;4.63;;
65636;SDS011;52327;42.622;23.316;2024-03-02T05:46:51;13.80;;;6.72;;
65636;SDS011;52327;42.622;23.316;2024-03-02T05:49:17;15.85;;;6.03;;
65636;SDS011;52327;42.622;23.316;2024-03-02T05:51:43;22.02;;;6.03;;
65636;SDS011;52327;42.622;23.316;2024-03-02T05:54:08;8.93;;;4.35;;
65636;SDS011;52327;42.622;23.316;2024-03-02T05:56:33;7.65;;;3.78;;
65636;SDS011;52327;42.622;23.316;2024-03-02T05:59:00;9.30;;;6.03;;
65636;SDS011;52327;42.622;23.316;2024-03-02T06:01:45;10.65;;;5.22;;
65636;SDS011;52327;42.622;23.316;2024-03-02T06:04:17;7.85;;;4.78;;
65636;SDS011;52327;42.622;23.316;2024-03-02T06:06:43;7.45;;;4.80;;
65636;SDS011;52327;42.622;23.316;2024-03-02T06:09:08;5.80;;;3.50;;
65636;SDS011;52327;42.622;23.316;2024-03-02T06:11:34;13.13;;;6.68;;
65636;SDS011;52327;42.622;23.316;2024-03-02T06:14:01;13.23;;;5.43;;
65636;SDS011;52327;42.622;23.316;2024-03-02T06:16:27;9.50;;;5.05;;
65636;SDS011;52327;42.622;23.316;2024-03-02T06:18:52;8.77;;;4.97;;
65636;SDS011;52327;42.622;23.316;2024-03-02T06:21:19;13.65;;;4.90;;
65636;SDS011;52327;42.622;23.316;2024-03-02T06:23:44;8.25;;;4.60;;
65636;SDS011;52327;42.622;23.316;2024-03-02T06:26:10;9.70;;;3.95;;
65636;SDS011;52327;42.622;23.316;2024-03-02T06:28:35;9.98;;;4.10;;
65636;SDS011;52327;42.622;23.316;2024-03-02T06:31:01;5.85;;;3.35;;
65636;SDS011;52327;42.622;23.316;2024-03-02T06:33:27;6.88;;;4.32;;
65636;SDS011;52327;42.622;23.316;2024-03-02T06:35:53;6.93;;;4.95;;
65636;SDS011;52327;42.622;23.316;2024-03-02T06:38:19;8.57;;;3.25;;
65636;SDS011;52327;42.622;23.316;2024-03-02T06:40:44;6.72;;;3.60;;
65636;SDS011;52327;42.622;23.316;2024-03-02T06:43:09;5.55;;;3.05;;
65636;SDS011;52327;42.622;23.316;2024-03-02T06:45:35;7.47;;;4.38;;
65636;SDS011;52327;42.622;23.316;2024-03-02T06:48:00;5.82;;;3.03;;
65636;SDS011;52327;42.622;23.316;2024-03-02T06:50:26;2.85;;;2.47;;
65636;SDS011;52327;42.622;23.316;2024-03-02T06:52:51;5.43;;;3.63;;
65636;SDS011;52327;42.622;23.316;2024-03-02T06:55:17;3.50;;;2.38;;
65636;SDS011;52327;42.622;23.316;2024-03-02T06:57:42;4.97;;;3.40;;
65636;SDS011;52327;42.622;23.316;2024-03-02T07:00:08;10.55;;;5.07;;
65636;SDS011;52327;42.622;23.316;2024-03-02T07:02:34;4.90;;;3.22;;
65636;SDS011;52327;42.622;23.316;2024-03-02T07:05:01;5.72;;;3.70;;
65636;SDS011;52327;42.622;23.316;2024-03-02T07:07:26;5.00;;;2.67;;
65636;SDS011;52327;42.622;23.316;2024-03-02T07:09:51;3.88;;;3.17;;
65636;SDS011;52327;42.622;23.316;2024-03-02T07:12:17;3.72;;;3.05;;
65636;SDS011;52327;42.622;23.316;2024-03-02T07:14:42;5.35;;;4.10;;
65636;SDS011;52327;42.622;23.316;2024-03-02T07:17:26;3.85;;;2.80;;
65636;SDS011;52327;42.622;23.316;2024-03-02T07:19:52;3.72;;;3.42;;
65636;SDS011;52327;42.622;23.316;2024-03-02T07:22:20;2.63;;;2.38;;
65636;SDS011;52327;42.622;23.316;2024-03-02T07:24:46;3.88;;;2.25;;
65636;SDS011;52327;42.622;23.316;2024-03-02T07:27:11;3.13;;;2.25;;
65636;SDS011;52327;42.622;23.316;2024-03-02T07:29:38;5.32;;;3.67;;
65636;SDS011;52327;42.622;23.316;2024-03-02T07:32:04;3.95;;;2.85;;
65636;SDS011;52327;42.622;23.316;2024-03-02T07:34:30;3.97;;;3.00;;
65636;SDS011;52327;42.622;23.316;2024-03-02T07:36:55;4.95;;;2.70;;
65636;SDS011;52327;42.622;23.316;2024-03-02T07:39:21;4.40;;;2.92;;
65636;SDS011;52327;42.622;23.316;2024-03-02T07:41:46;4.28;;;2.92;;
65636;SDS011;52327;42.622;23.316;2024-03-02T07:44:12;5.32;;;2.22;;
65636;SDS011;52327;42.622;23.316;2024-03-02T07:46:41;6.17;;;2.40;;
65636;SDS011;52327;42.622;23.316;2024-03-02T07:49:07;4.03;;;2.33;;
65636;SDS011;52327;42.622;23.316;2024-03-02T07:51:33;2.40;;;2.08;;
65636;SDS011;52327;42.622;23.316;2024-03-02T07:53:59;9.40;;;3.55;;
65636;SDS011;52327;42.622;23.316;2024-03-02T07:56:24;7.32;;;3.10;;
65636;SDS011;52327;42.622;23.316;2024-03-02T07:58:50;6.53;;;3.63;;
65636;SDS011;52327;42.622;23.316;2024-03-02T08:01:15;4.30;;;2.75;;
65636;SDS011;52327;42.622;23.316;2024-03-02T08:03:40;3.83;;;3.08;;
65636;SDS011;52327;42.622;23.316;2024-03-02T08:06:06;3.30;;;2.70;;
65636;SDS011;52327;42.622;23.316;2024-03-02T08:08:32;4.57;;;2.45;;
65636;SDS011;52327;42.622;23.316;2024-03-02T08:10:57;5.55;;;3.55;;
65636;SDS011;52327;42.622;23.316;2024-03-02T08:13:22;7.85;;;3.40;;
65636;SDS011;52327;42.622;23.316;2024-03-02T08:15:48;4.18;;;2.80;;
65636;SDS011;52327;42.622;23.316;2024-03-02T08:18:14;3.80;;;3.38;;
65636;SDS011;52327;42.622;23.316;2024-03-02T08:20:40;6.00;;;3.60;;
65636;SDS011;52327;42.622;23.316;2024-03-02T08:23:05;3.80;;;2.80;;
65636;SDS011;52327;42.622;23.316;2024-03-02T08:25:31;5.90;;;3.63;;
65636;SDS011;52327;42.622;23.316;2024-03-02T08:27:57;5.95;;;4.47;;
65636;SDS011;52327;42.622;23.316;2024-03-02T08:30:23;5.50;;;3.28;;
65636;SDS011;52327;42.622;23.316;2024-03-02T08:32:48;4.45;;;3.40;;
65636;SDS011;52327;42.622;23.316;2024-03-02T08:35:14;4.78;;;3.17;;
65636;SDS011;52327;42.622;23.316;2024-03-02T08:37:39;5.65;;;3.58;;
65636;SDS011;52327;42.622;23.316;2024-03-02T08:40:07;9.57;;;3.80;;
65636;SDS011;52327;42.622;23.316;2024-03-02T08:42:33;7.63;;;3.47;;
65636;SDS011;52327;42.622;23.316;2024-03-02T08:44:59;5.88;;;3.60;;
65636;SDS011;52327;42.622;23.316;2024-03-02T08:47:26;9.30;;;4.25;;
65636;SDS011;52327;42.622;23.316;2024-03-02T08:49:52;7.88;;;4.30;;
65636;SDS011;52327;42.622;23.316;2024-03-02T08:52:17;5.00;;;3.22;;
65636;SDS011;52327;42.622;23.316;2024-03-02T08:54:43;4.43;;;3.03;;
65636;SDS011;52327;42.622;23.316;2024-03-02T08:57:08;5.95;;;3.28;;
65636;SDS011;52327;42.622;23.316;2024-03-02T08:59:33;6.63;;;4.05;;
65636;SDS011;52327;42.622;23.316;2024-03-02T09:01:59;3.25;;;2.85;;
65636;SDS011;52327;42.622;23.316;2024-03-02T09:04:24;5.00;;;3.67;;
65636;SDS011;52327;42.622;23.316;2024-03-02T09:06:50;5.72;;;3.78;;
65636;SDS011;52327;42.622;23.316;2024-03-02T09:09:15;5.28;;;3.50;;
65636;SDS011;52327;42.622;23.316;2024-03-02T09:11:41;9.30;;;3.72;;
65636;SDS011;52327;42.622;23.316;2024-03-02T09:14:06;4.65;;;3.58;;
65636;SDS011;52327;42.622;23.316;2024-03-02T09:16:31;5.13;;;3.17;;
65636;SDS011;52327;42.622;23.316;2024-03-02T09:18:57;6.40;;;3.65;;
65636;SDS011;52327;42.622;23.316;2024-03-02T09:21:23;6.68;;;4.22;;
65636;SDS011;52327;42.622;23.316;2024-03-02T09:23:48;6.95;;;2.67;;
65636;SDS011;52327;42.622;23.316;2024-03-02T09:26:14;7.45;;;2.88;;
65636;SDS011;52327;42.622;23.316;2024-03-02T09:28:43;7.05;;;4.10;;
65636;SDS011;52327;42.622;23.316;2024-03-02T09:31:09;5.78;;;3.03;;
65636;SDS011;52327;42.622;23.316;2024-03-02T09:33:34;5.28;;;2.60;;
65636;SDS011;52327;42.622;23.316;2024-03-02T09:35:59;6.75;;;3.17;;
65636;SDS011;52327;42.622;23.316;2024-03-02T09:38:25;4.20;;;3.47;;
65636;SDS011;52327;42.622;23.316;2024-03-02T09:40:51;5.95;;;3.03;;
65636;SDS011;52327;42.622;23.316;2024-03-02T09:43:16;8.15;;;4.20;;
65636;SDS011;52327;42.622;23.316;2024-03-02T09:45:42;7.53;;;4.10;;
65636;SDS011;52327;42.622;23.316;2024-03-02T09:48:08;7.38;;;3.28;;
65636;SDS011;52327;42.622;23.316;2024-03-02T09:50:34;7.30;;;4.22;;
65636;SDS011;52327;42.622;23.316;2024-03-02T09:52:59;5.40;;;3.42;;
65636;SDS011;52327;42.622;23.316;2024-03-02T09:55:24;7.68;;;3.58;;
65636;SDS011;52327;42.622;23.316;2024-03-02T09:57:50;3.65;;;2.47;;
65636;SDS011;52327;42.622;23.316;2024-03-02T10:00:16;8.02;;;4.13;;
65636;SDS011;52327;42.622;23.316;2024-03-02T10:02:42;8.80;;;2.90;;
65636;SDS011;52327;42.622;23.316;2024-03-02T10:05:10;7.38;;;4.10;;
65636;SDS011;52327;42.622;23.316;2024-03-02T10:07:37;6.45;;;2.78;;
65636;SDS011;52327;42.622;23.316;2024-03-02T10:10:12;4.88;;;3.42;;
65636;SDS011;52327;42.622;23.316;2024-03-02T10:12:39;4.13;;;2.75;;
65636;SDS011;52327;42.622;23.316;2024-03-02T10:15:04;7.90;;;3.15;;
65636;SDS011;52327;42.622;23.316;2024-03-02T10:17:33;6.10;;;3.30;;
65636;SDS011;52327;42.622;23.316;2024-03-02T10:19:59;6.60;;;4.00;;
65636;SDS011;52327;42.622;23.316;2024-03-02T10:22:24;7.07;;;3.63;;
65636;SDS011;52327;42.622;23.316;2024-03-02T10:24:51;7.72;;;3.75;;
65636;SDS011;52327;42.622;23.316;2024-03-02T10:27:18;7.15;;;3.33;;
65636;SDS011;52327;42.622;23.316;2024-03-02T10:29:48;11.73;;;5.88;;
65636;SDS011;52327;42.622;23.316;2024-03-02T10:32:14;6.72;;;4.32;;
65636;SDS011;52327;42.622;23.316;2024-03-02T10:34:41;9.38;;;5.55;;
65636;SDS011;52327;42.622;23.316;2024-03-02T10:37:07;8.80;;;4.82;;
65636;SDS011;52327;42.622;23.316;2024-03-02T10:39:34;11.10;;;4.55;;
65636;SDS011;52327;42.622;23.316;2024-03-02T10:42:00;7.60;;;4.35;;
65636;SDS011;52327;42.622;23.316;2024-03-02T10:44:28;17.05;;;7.90;;
65636;SDS011;52327;42.622;23.316;2024-03-02T10:46:54;12.27;;;5.07;;
65636;SDS011;52327;42.622;23.316;2024-03-02T10:49:21;10.07;;;6.10;;
65636;SDS011;52327;42.622;23.316;2024-03-02T10:51:48;12.52;;;4.97;;
65636;SDS011;52327;42.622;23.316;2024-03-02T10:54:14;10.70;;;6.10;;
65636;SDS011;52327;42.622;23.316;2024-03-02T10:56:40;9.25;;;5.60;;
65636;SDS011;52327;42.622;23.316;2024-03-02T10:59:17;14.27;;;7.32;;
65636;SDS011;52327;42.622;23.316;2024-03-02T11:01:57;10.88;;;5.78;;
65636;SDS011;52327;42.622;23.316;2024-03-02T11:04:24;13.43;;;5.07;;
65636;SDS011;52327;42.622;23.316;2024-03-02T11:06:51;7.63;;;4.28;;
65636;SDS011;52327;42.622;23.316;2024-03-02T11:09:21;5.78;;;3.45;;
65636;SDS011;52327;42.622;23.316;2024-03-02T11:14:34;10.13;;;4.13;;
65636;SDS011;52327;42.622;23.316;2024-03-02T11:17:05;10.30;;;3.72;;
65636;SDS011;52327;42.622;23.316;2024-03-02T11:19:31;5.10;;;3.45;;
65636;SDS011;52327;42.622;23.316;2024-03-02T11:21:58;6.50;;;4.00;;
65636;SDS011;52327;42.622;23.316;2024-03-02T11:26:49;5.40;;;3.58;;
65636;SDS011;52327;42.622;23.316;2024-03-02T11:32:03;7.20;;;3.65;;
65636;SDS011;52327;42.622;23.316;2024-03-02T11:34:31;7.25;;;3.95;;
65636;SDS011;52327;42.622;23.316;2024-03-02T11:36:58;12.77;;;4.93;;
65636;SDS011;52327;42.622;23.316;2024-03-02T11:39:27;7.13;;;4.53;;
65636;SDS011;52327;42.622;23.316;2024-03-02T11:41:53;6.75;;;3.33;;
65636;SDS011;52327;42.622;23.316;2024-03-02T11:44:20;7.53;;;3.83;;
65636;SDS011;52327;42.622;23.316;2024-03-02T11:46:46;6.00;;;4.03;;
65636;SDS011;52327;42.622;23.316;2024-03-02T11:49:36;8.77;;;3.92;;
65636;SDS011;52327;42.622;23.316;2024-03-02T11:52:02;9.73;;;3.70;;
65636;SDS011;52327;42.622;23.316;2024-03-02T11:54:29;6.60;;;4.60;;
65636;SDS011;52327;42.622;23.316;2024-03-02T11:56:58;9.38;;;4.68;;
65636;SDS011;52327;42.622;23.316;2024-03-02T11:59:25;16.33;;;6.20;;
65636;SDS011;52327;42.622;23.316;2024-03-02T12:01:51;10.55;;;5.10;;
65636;SDS011;52327;42.622;23.316;2024-03-02T12:04:17;5.63;;;4.47;;
65636;SDS011;52327;42.622;23.316;2024-03-02T12:06:43;6.85;;;4.68;;
65636;SDS011;52327;42.622;23.316;2024-03-02T12:09:09;9.07;;;4.55;;
65636;SDS011;52327;42.622;23.316;2024-03-02T12:11:37;10.60;;;4.35;;
65636;SDS011;52327;42.622;23.316;2024-03-02T12:14:02;6.38;;;4.40;;
65636;SDS011;52327;42.622;23.316;2024-03-02T12:16:29;6.07;;;3.20;;
65636;SDS011;52327;42.622;23.316;2024-03-02T12:18:54;7.82;;;4.55;;
65636;SDS011;52327;42.622;23.316;2024-03-02T12:21:20;6.25;;;4.53;;
65636;SDS011;52327;42.622;23.316;2024-03-02T12:23:45;8.73;;;4.47;;
65636;SDS011;52327;42.622;23.316;2024-03-02T12:26:11;9.65;;;5.75;;
65636;SDS011;52327;42.622;23.316;2024-03-02T12:28:36;13.73;;;5.25;;
65636;SDS011;52327;42.622;23.316;2024-03-02T12:31:02;7.63;;;4.88;;
65636;SDS011;52327;42.622;23.316;2024-03-02T12:33:28;6.72;;;3.72;;
65636;SDS011;52327;42.622;23.316;2024-03-02T12:35:54;6.35;;;4.18;;
65636;SDS011;52327;42.622;23.316;2024-03-02T12:38:22;7.72;;;4.82;;
65636;SDS011;52327;42.622;23.316;2024-03-02T12:40:50;5.78;;;3.25;;
65636;SDS011;52327;42.622;23.316;2024-03-02T12:43:17;7.70;;;5.20;;
65636;SDS011;52327;42.622;23.316;2024-03-02T12:45:43;5.15;;;2.67;;
65636;SDS011;52327;42.622;23.316;2024-03-02T12:48:08;9.73;;;4.55;;
65636;SDS011;52327;42.622;23.316;2024-03-02T12:50:33;6.85;;;3.47;;
65636;SDS011;52327;42.622;23.316;2024-03-02T12:52:59;6.47;;;4.07;;
65636;SDS011;52327;42.622;23.316;2024-03-02T12:55:24;9.65;;;5.70;;
65636;SDS011;52327;42.622;23.316;2024-03-02T12:57:51;5.50;;;4.03;;
65636;SDS011;52327;42.622;23.316;2024-03-02T13:00:17;5.57;;;4.38;;
65636;SDS011;52327;42.622;23.316;2024-03-02T13:02:45;6.22;;;3.92;;
65636;SDS011;52327;42.622;23.316;2024-03-02T13:05:11;21.20;;;4.90;;
65636;SDS011;52327;42.622;23.316;2024-03-02T13:07:36;6.65;;;4.85;;
65636;SDS011;52327;42.622;23.316;2024-03-02T13:10:03;7.47;;;4.57;;
65636;SDS011;52327;42.622;23.316;2024-03-02T13:12:29;5.93;;;3.50;;
65636;SDS011;52327;42.622;23.316;2024-03-02T13:14:55;5.53;;;3.50;;
65636;SDS011;52327;42.622;23.316;2024-03-02T13:17:23;7.13;;;3.90;;
65636;SDS011;52327;42.622;23.316;2024-03-02T13:20:00;8.70;;;4.85;;
65636;SDS011;52327;42.622;23.316;2024-03-02T13:22:26;6.13;;;4.65;;
65636;SDS011;52327;42.622;23.316;2024-03-02T13:24:52;4.45;;;3.38;;
65636;SDS011;52327;42.622;23.316;2024-03-02T13:27:20;7.72;;;4.18;;
65636;SDS011;52327;42.622;23.316;2024-03-02T13:29:46;10.00;;;6.10;;
65636;SDS011;52327;42.622;23.316;2024-03-02T13:32:15;11.27;;;5.00;;
65636;SDS011;52327;42.622;23.316;2024-03-02T13:34:41;7.72;;;4.47;;
65636;SDS011;52327;42.622;23.316;2024-03-02T13:37:07;6.97;;;4.03;;
65636;SDS011;52327;42.622;23.316;2024-03-02T13:39:32;5.18;;;3.92;;
65636;SDS011;52327;42.622;23.316;2024-03-02T13:42:04;7.80;;;4.05;;
65636;SDS011;52327;42.622;23.316;2024-03-02T13:44:38;6.72;;;5.15;;
65636;SDS011;52327;42.622;23.316;2024-03-02T13:47:04;6.82;;;4.72;;
65636;SDS011;52327;42.622;23.316;2024-03-02T13:49:30;8.52;;;4.82;;
65636;SDS011;52327;42.622;23.316;2024-03-02T13:52:03;7.50;;;4.85;;
65636;SDS011;52327;42.622;23.316;2024-03-02T13:54:36;9.52;;;5.35;;
65636;SDS011;52327;42.622;23.316;2024-03-02T13:57:03;8.43;;;5.43;;
65636;SDS011;52327;42.622;23.316;2024-03-02T13:59:28;5.97;;;3.97;;
65636;SDS011;52327;42.622;23.316;2024-03-02T14:01:54;9.40;;;5.97;;
65636;SDS011;52327;42.622;23.316;2024-03-02T14:04:19;8.43;;;4.10;;
65636;SDS011;52327;42.622;23.316;2024-03-02T14:06:45;9.30;;;4.68;;
65636;SDS011;52327;42.622;23.316;2024-03-02T14:09:11;11.70;;;6.57;;
65636;SDS011;52327;42.622;23.316;2024-03-02T14:11:36;12.40;;;6.78;;
65636;SDS011;52327;42.622;23.316;2024-03-02T14:14:01;9.35;;;5.40;;
65636;SDS011;52327;42.622;23.316;2024-03-02T14:16:27;8.20;;;4.93;;
65636;SDS011;52327;42.622;23.316;2024-03-02T14:18:53;10.48;;;6.32;;
65636;SDS011;52327;42.622;23.316;2024-03-02T14:21:18;7.88;;;4.55;;
65636;SDS011;52327;42.622;23.316;2024-03-02T14:23:44;10.55;;;5.05;;
65636;SDS011;52327;42.622;23.316;2024-03-02T14:26:09;9.27;;;4.68;;
65636;SDS011;52327;42.622;23.316;2024-03-02T14:28:34;10.45;;;4.18;;
65636;SDS011;52327;42.622;23.316;2024-03-02T14:31:00;4.93;;;4.20;;
65636;SDS011;52327;42.622;23.316;2024-03-02T14:33:26;8.25;;;4.57;;
65636;SDS011;52327;42.622;23.316;2024-03-02T14:35:52;8.45;;;4.88;;
65636;SDS011;52327;42.622;23.316;2024-03-02T14:38:18;9.80;;;5.15;;
65636;SDS011;52327;42.622;23.316;2024-03-02T14:40:44;12.52;;;5.03;;
65636;SDS011;52327;42.622;23.316;2024-03-02T14:43:09;10.55;;;5.47;;